createdAt,value
2019-03-25T00:02:34.653Z,12.63
2019-03-25T00:05:10.046Z,9.80
2019-03-25T00:07:45.338Z,16.17
2019-03-25T00:10:20.034Z,13.63
2019-03-25T00:12:55.012Z,15.93
2019-03-25T00:15:29.767Z,13.73
2019-03-25T00:18:04.264Z,12.63
2019-03-25T00:20:39.431Z,13.37
2019-03-25T00:23:13.895Z,14.27
2019-03-25T00:25:48.691Z,13.87
2019-03-25T00:28:23.804Z,17.00
2019-03-25T00:30:59.827Z,14.07
2019-03-25T00:33:35.783Z,14.23
2019-03-25T00:36:10.801Z,13.27
2019-03-25T00:38:45.655Z,13.47
2019-03-25T00:41:20.990Z,17.20
2019-03-25T00:43:56.031Z,16.30
2019-03-25T00:46:30.626Z,13.73
2019-03-25T00:49:06.683Z,12.70
2019-03-25T00:51:41.386Z,13.00
2019-03-25T00:54:19.901Z,14.80
2019-03-25T00:56:58.368Z,12.23
2019-03-25T00:59:34.087Z,16.20
2019-03-25T01:02:09.105Z,14.18
2019-03-25T01:04:44.215Z,15.87
2019-03-25T01:07:19.532Z,13.23
2019-03-25T01:09:54.466Z,13.50
2019-03-25T01:12:29.475Z,13.60
2019-03-25T01:15:07.811Z,16.07
2019-03-25T01:17:42.591Z,12.77
2019-03-25T01:20:17.866Z,15.57
2019-03-25T01:22:52.934Z,13.00
2019-03-25T01:25:28.594Z,19.07
2019-03-25T01:28:03.360Z,18.07
2019-03-25T01:30:38.570Z,12.23
2019-03-25T01:33:14.056Z,15.87
2019-03-25T01:35:48.835Z,14.18
2019-03-25T01:38:23.735Z,11.70
2019-03-25T01:40:59.003Z,13.47
2019-03-25T01:43:34.133Z,13.53
2019-03-25T01:46:08.866Z,14.03
2019-03-25T01:48:43.990Z,12.45
2019-03-25T01:51:19.237Z,15.90
2019-03-25T01:53:53.926Z,16.97
2019-03-25T01:56:29.924Z,19.23
2019-03-25T01:59:04.679Z,16.90
2019-03-25T02:01:39.670Z,16.23
2019-03-25T02:04:15.042Z,13.23
2019-03-25T02:06:49.691Z,14.40
2019-03-25T02:09:24.848Z,10.90
2019-03-25T02:12:00.395Z,11.63
2019-03-25T02:14:35.503Z,10.17
2019-03-25T02:17:10.504Z,16.23
2019-03-25T02:19:45.916Z,15.63
2019-03-25T02:22:21.119Z,12.60
2019-03-25T02:24:56.651Z,12.70
2019-03-25T02:27:32.170Z,14.60
2019-03-25T02:30:09.313Z,14.47
2019-03-25T02:32:45.331Z,10.30
2019-03-25T02:35:20.512Z,21.37
2019-03-25T02:37:55.909Z,14.10
2019-03-25T02:40:30.466Z,18.47
2019-03-25T02:43:05.128Z,13.67
2019-03-25T02:45:40.654Z,12.20
2019-03-25T02:48:16.223Z,13.60
2019-03-25T02:50:54.018Z,15.97
2019-03-25T02:53:28.955Z,12.93
2019-03-25T02:56:03.596Z,16.87
2019-03-25T02:58:39.863Z,14.17
2019-03-25T03:01:15.255Z,14.20
2019-03-25T03:03:50.136Z,16.67
2019-03-25T03:06:26.792Z,14.83
2019-03-25T03:09:01.627Z,14.93
2019-03-25T03:11:36.223Z,14.70
2019-03-25T03:14:15.146Z,10.83
2019-03-25T03:16:50.338Z,13.00
2019-03-25T03:19:24.884Z,10.80
2019-03-25T03:22:00.100Z,11.33
2019-03-25T03:24:34.959Z,11.63
2019-03-25T03:27:09.968Z,12.73
2019-03-25T03:29:45.381Z,14.83
2019-03-25T03:32:20.763Z,12.33
2019-03-25T03:34:55.465Z,10.73
2019-03-25T03:37:31.772Z,16.30
2019-03-25T03:40:06.592Z,15.43
2019-03-25T03:42:41.910Z,11.80
2019-03-25T03:45:18.846Z,16.23
2019-03-25T03:47:53.426Z,16.10
2019-03-25T03:50:29.272Z,11.00
2019-03-25T03:53:04.284Z,15.53
2019-03-25T03:55:42.103Z,14.57
2019-03-25T03:58:16.972Z,13.80
2019-03-25T04:00:52.104Z,12.27
2019-03-25T04:03:28.111Z,12.40
2019-03-25T04:06:02.717Z,12.33
2019-03-25T04:08:37.700Z,11.60
2019-03-25T04:11:13.805Z,12.20
2019-03-25T04:13:48.298Z,15.27
2019-03-25T04:16:22.854Z,16.57
2019-03-25T04:18:59.030Z,15.50
2019-03-25T04:21:34.018Z,14.37
2019-03-25T04:24:08.488Z,18.33
2019-03-25T04:26:45.835Z,10.97
2019-03-25T04:29:20.397Z,14.53
2019-03-25T04:31:55.259Z,12.13
2019-03-25T04:34:32.237Z,13.10
2019-03-25T04:37:07.508Z,12.77
2019-03-25T04:39:42.369Z,10.77
2019-03-25T04:42:17.647Z,11.33
2019-03-25T04:44:52.504Z,15.40
2019-03-25T04:47:26.983Z,15.23
2019-03-25T04:50:02.662Z,17.37
2019-03-25T04:52:37.887Z,16.33
2019-03-25T04:55:12.714Z,16.57
2019-03-25T04:57:47.938Z,16.60
2019-03-25T05:00:37.458Z,17.80
2019-03-25T05:03:12.955Z,14.55
2019-03-25T05:05:48.895Z,14.37
2019-03-25T05:08:25.542Z,12.80
2019-03-25T05:11:03.730Z,15.03
2019-03-25T05:13:38.554Z,15.77
2019-03-25T05:16:13.940Z,16.97
2019-03-25T05:18:48.931Z,15.33
2019-03-25T05:21:24.124Z,11.67
2019-03-25T05:24:01.796Z,14.40
2019-03-25T05:26:37.515Z,13.57
2019-03-25T05:29:13.995Z,15.97
2019-03-25T05:31:50.940Z,11.30
2019-03-25T05:34:25.407Z,14.90
2019-03-25T05:37:02.103Z,16.87
2019-03-25T05:39:37.941Z,15.00
2019-03-25T05:42:13.404Z,13.20
2019-03-25T05:44:48.521Z,15.30
2019-03-25T05:47:23.152Z,10.93
2019-03-25T05:49:58.422Z,12.93
2019-03-25T05:52:33.469Z,13.43
2019-03-25T05:55:08.778Z,12.90
2019-03-25T05:57:44.417Z,13.33
2019-03-25T06:00:22.349Z,13.97
2019-03-25T06:02:57.614Z,17.23
2019-03-25T06:05:34.798Z,11.37
2019-03-25T06:08:11.042Z,12.53
2019-03-25T06:10:46.770Z,10.07
2019-03-25T06:13:21.520Z,12.13
2019-03-25T06:15:58.575Z,14.30
2019-03-25T06:18:34.007Z,13.15
2019-03-25T06:21:08.541Z,12.67
2019-03-25T06:23:45.471Z,15.70
2019-03-25T06:26:20.939Z,16.63
2019-03-25T06:28:56.311Z,13.70
2019-03-25T06:31:32.747Z,19.50
2019-03-25T06:34:07.542Z,17.73
2019-03-25T06:36:42.339Z,10.13
2019-03-25T06:39:17.798Z,15.35
2019-03-25T06:41:56.016Z,16.13
2019-03-25T06:44:32.413Z,10.33
2019-03-25T06:47:07.482Z,12.03
2019-03-25T06:49:45.453Z,15.93
2019-03-25T06:52:21.506Z,15.83
2019-03-25T06:54:57.419Z,17.37
2019-03-25T06:57:32.382Z,18.87
2019-03-25T07:00:09.397Z,16.17
2019-03-25T07:02:46.071Z,18.90
2019-03-25T07:05:20.878Z,15.63
2019-03-25T07:07:55.924Z,18.20
2019-03-25T07:10:37.987Z,18.93
2019-03-25T07:13:12.930Z,18.75
2019-03-25T07:15:48.446Z,20.77
2019-03-25T07:18:24.643Z,21.27
2019-03-25T07:20:59.627Z,18.90
2019-03-25T07:23:34.265Z,15.67
2019-03-25T07:26:09.380Z,20.27
2019-03-25T07:28:44.905Z,19.93
2019-03-25T07:31:19.894Z,16.97
2019-03-25T07:33:55.319Z,17.15
2019-03-25T07:36:30.206Z,24.67
2019-03-25T07:39:05.873Z,18.25
2019-03-25T07:41:41.251Z,18.13
2019-03-25T07:44:15.931Z,18.33
2019-03-25T07:46:51.499Z,13.77
2019-03-25T07:49:29.842Z,15.23
2019-03-25T07:52:07.679Z,23.00
2019-03-25T07:54:43.127Z,18.03
2019-03-25T07:57:17.833Z,20.10
2019-03-25T07:59:53.166Z,20.67
2019-03-25T08:02:27.700Z,20.23
2019-03-25T08:05:03.235Z,22.10
2019-03-25T08:07:38.498Z,17.10
2019-03-25T08:10:20.358Z,21.98
2019-03-25T08:12:56.179Z,16.43
2019-03-25T08:15:33.789Z,25.50
2019-03-25T08:18:15.199Z,16.55
2019-03-25T08:20:49.736Z,15.37
2019-03-25T08:23:25.803Z,15.87
2019-03-25T08:26:00.669Z,15.00
2019-03-25T08:28:36.857Z,16.97
2019-03-25T08:31:11.838Z,14.40
2019-03-25T08:33:46.624Z,13.82
2019-03-25T08:36:21.824Z,13.68
2019-03-25T08:39:02.844Z,12.93
2019-03-25T08:41:38.560Z,14.47
2019-03-25T08:44:14.132Z,11.00
2019-03-25T08:46:49.857Z,15.38
2019-03-25T08:49:24.603Z,15.30
2019-03-25T08:52:00.939Z,18.13
2019-03-25T08:54:38.065Z,16.83
2019-03-25T08:57:18.279Z,17.17
2019-03-25T08:59:53.347Z,14.20
2019-03-25T09:02:27.930Z,14.67
2019-03-25T09:05:05.303Z,19.80
2019-03-25T09:07:41.679Z,15.97
2019-03-25T09:10:18.347Z,14.00
2019-03-25T09:12:53.374Z,13.07
2019-03-25T09:15:41.675Z,18.63
2019-03-25T09:18:18.230Z,15.48
2019-03-25T09:20:52.997Z,12.60
2019-03-25T09:23:30.430Z,13.40
2019-03-25T09:26:05.353Z,11.67
2019-03-25T09:28:40.277Z,14.15
2019-03-25T09:31:18.675Z,8.53
2019-03-25T09:33:56.763Z,9.67
2019-03-25T09:36:32.443Z,14.80
2019-03-25T09:39:08.521Z,12.00
2019-03-25T09:41:43.621Z,13.07
2019-03-25T09:44:19.658Z,11.33
2019-03-25T09:46:56.840Z,11.23
2019-03-25T09:49:31.913Z,9.97
2019-03-25T09:52:08.148Z,9.40
2019-03-25T09:54:43.913Z,9.32
2019-03-25T09:57:20.515Z,10.07
2019-03-25T10:00:00.346Z,12.63
2019-03-25T10:02:43.212Z,9.80
2019-03-25T10:05:23.006Z,10.27
2019-03-25T10:07:59.043Z,9.30
2019-03-25T10:10:36.035Z,14.87
2019-03-25T10:13:22.653Z,15.60
2019-03-25T10:15:58.175Z,11.97
2019-03-25T10:18:43.035Z,10.97
2019-03-25T10:21:18.901Z,13.87
2019-03-25T10:23:55.129Z,14.67
2019-03-25T10:26:42.786Z,8.87
2019-03-25T10:29:17.491Z,8.73
2019-03-25T10:31:52.871Z,8.87
2019-03-25T10:34:32.011Z,7.27
2019-03-25T10:37:07.172Z,7.90
2019-03-25T10:39:42.786Z,10.50
2019-03-25T10:42:18.547Z,8.23
2019-03-25T10:44:54.070Z,9.57
2019-03-25T10:47:29.479Z,8.95
2019-03-25T10:50:05.508Z,7.27
2019-03-25T10:52:41.763Z,8.05
2019-03-25T10:55:16.645Z,5.40
2019-03-25T10:57:56.139Z,10.63
2019-03-25T11:00:32.372Z,6.37
2019-03-25T11:03:10.989Z,10.57
2019-03-25T11:05:49.601Z,10.47
2019-03-25T11:08:30.214Z,9.50
2019-03-25T11:11:07.347Z,7.83
2019-03-25T11:13:42.054Z,4.93
2019-03-25T11:16:24.979Z,10.23
2019-03-25T11:19:01.322Z,5.07
2019-03-25T11:21:37.220Z,7.40
2019-03-25T11:24:12.058Z,6.07
2019-03-25T11:26:47.797Z,8.27
2019-03-25T11:29:23.505Z,6.20
2019-03-25T11:31:59.818Z,3.47
2019-03-25T11:34:36.120Z,6.07
2019-03-25T11:37:11.288Z,5.87
2019-03-25T11:39:49.217Z,5.97
2019-03-25T11:42:24.316Z,7.47
2019-03-25T11:44:59.878Z,9.82
2019-03-25T11:47:34.759Z,8.50
2019-03-25T11:50:10.069Z,7.12
2019-03-25T11:52:44.805Z,8.90
2019-03-25T11:55:19.982Z,4.63
2019-03-25T11:57:56.196Z,6.77
2019-03-25T12:00:33.768Z,6.17
2019-03-25T12:03:12.074Z,9.00
2019-03-25T12:05:50.575Z,4.57
2019-03-25T12:08:29.803Z,6.00
2019-03-25T12:11:05.115Z,5.90
2019-03-25T12:13:40.208Z,8.67
2019-03-25T12:16:17.063Z,10.93
2019-03-25T12:18:54.822Z,8.13
2019-03-25T12:21:32.979Z,7.67
2019-03-25T12:24:11.120Z,7.27
2019-03-25T12:26:47.994Z,10.93
2019-03-25T12:29:29.922Z,10.20
2019-03-25T12:32:06.802Z,11.13
2019-03-25T12:34:42.968Z,12.37
2019-03-25T12:37:21.590Z,10.30
2019-03-25T12:39:57.586Z,5.43
2019-03-25T12:42:49.375Z,4.67
2019-03-25T12:45:24.939Z,8.17
2019-03-25T12:48:01.239Z,7.87
2019-03-25T12:50:37.469Z,8.00
2019-03-25T12:53:13.191Z,9.80
2019-03-25T12:55:48.594Z,7.53
2019-03-25T12:58:26.828Z,11.23
2019-03-25T13:01:03.715Z,7.90
2019-03-25T13:03:40.803Z,16.10
2019-03-25T13:06:17.779Z,10.87
2019-03-25T13:08:52.418Z,8.80
2019-03-25T13:11:29.939Z,7.97
2019-03-25T13:14:04.647Z,8.50
2019-03-25T13:16:39.527Z,4.67
2019-03-25T13:19:14.771Z,7.23
2019-03-25T13:21:50.395Z,9.53
2019-03-25T13:24:29.451Z,8.43
2019-03-25T13:27:13.289Z,7.07
2019-03-25T13:29:52.913Z,5.37
2019-03-25T13:32:32.761Z,11.97
2019-03-25T13:35:09.211Z,5.87
2019-03-25T13:37:45.509Z,6.33
2019-03-25T13:40:21.164Z,5.33
2019-03-25T13:42:57.717Z,6.93
2019-03-25T13:45:34.683Z,10.40
2019-03-25T13:48:10.244Z,8.07
2019-03-25T13:50:45.378Z,7.23
2019-03-25T13:53:21.333Z,9.13
2019-03-25T13:55:58.751Z,13.03
2019-03-25T13:58:42.992Z,9.50
2019-03-25T14:01:19.219Z,7.53
2019-03-25T14:03:57.042Z,9.37
2019-03-25T14:06:32.566Z,9.63
2019-03-25T14:09:10.443Z,9.97
2019-03-25T14:11:46.166Z,12.33
2019-03-25T14:14:24.069Z,11.73
2019-03-25T14:16:59.567Z,11.83
2019-03-25T14:19:34.376Z,11.00
2019-03-25T14:22:11.934Z,7.27
2019-03-25T14:24:47.773Z,9.70
2019-03-25T14:27:25.686Z,11.87
2019-03-25T14:30:14.386Z,12.60
2019-03-25T14:32:55.982Z,9.93
2019-03-25T14:35:32.607Z,8.57
2019-03-25T14:38:07.743Z,11.73
2019-03-25T14:40:44.271Z,11.50
2019-03-25T14:43:19.742Z,10.13
2019-03-25T14:45:56.211Z,15.83
2019-03-25T14:48:31.508Z,9.25
2019-03-25T14:51:08.215Z,9.73
2019-03-25T14:53:45.627Z,11.03
2019-03-25T14:56:21.083Z,11.30
2019-03-25T14:58:56.400Z,12.23
2019-03-25T15:01:31.072Z,11.67
2019-03-25T15:04:06.443Z,11.00
2019-03-25T15:06:53.432Z,12.00
2019-03-25T15:09:28.114Z,10.57
2019-03-25T15:12:04.640Z,14.33
2019-03-25T15:14:42.497Z,11.47
2019-03-25T15:17:19.739Z,10.00
2019-03-25T15:19:55.039Z,12.43
2019-03-25T15:22:30.612Z,7.27
2019-03-25T15:25:07.470Z,11.37
2019-03-25T15:27:50.228Z,10.30
2019-03-25T15:30:36.018Z,9.37
2019-03-25T15:33:13.452Z,12.03
2019-03-25T15:35:49.822Z,11.77
2019-03-25T15:38:25.647Z,12.40
2019-03-25T15:41:01.192Z,12.40
2019-03-25T15:43:38.697Z,11.53
2019-03-25T15:46:16.717Z,13.97
2019-03-25T15:48:55.072Z,10.67
2019-03-25T15:51:36.123Z,10.50
2019-03-25T15:54:13.561Z,11.20
2019-03-25T15:56:53.107Z,10.45
2019-03-25T15:59:30.444Z,11.77
2019-03-25T16:02:13.314Z,11.60
2019-03-25T16:04:50.995Z,12.70
2019-03-25T16:07:27.846Z,14.33
2019-03-25T16:10:05.439Z,14.90
2019-03-25T16:12:40.379Z,11.27
2019-03-25T16:15:38.620Z,13.68
2019-03-25T16:18:38.049Z,8.90
2019-03-25T16:21:14.627Z,11.63
2019-03-25T16:23:54.097Z,11.50
2019-03-25T16:26:30.106Z,11.87
2019-03-25T16:29:04.898Z,8.97
2019-03-25T16:31:40.184Z,15.47
2019-03-25T16:34:15.235Z,12.30
2019-03-25T16:36:50.603Z,9.20
2019-03-25T16:39:29.032Z,10.47
2019-03-25T16:42:06.268Z,10.57
2019-03-25T16:44:43.414Z,10.00
2019-03-25T16:47:23.221Z,11.77
2019-03-25T16:50:02.288Z,16.23
2019-03-25T16:52:39.324Z,11.53
2019-03-25T16:55:14.068Z,7.67
2019-03-25T16:57:49.984Z,11.50
2019-03-25T17:00:27.714Z,11.73
2019-03-25T17:03:06.713Z,13.02
2019-03-25T17:05:43.265Z,14.97
2019-03-25T17:08:20.281Z,11.23
2019-03-25T17:10:56.679Z,8.67
2019-03-25T17:13:33.679Z,8.37
2019-03-25T17:16:09.748Z,6.20
2019-03-25T17:18:50.928Z,7.80
2019-03-25T17:21:27.680Z,8.10
2019-03-25T17:24:05.054Z,6.15
2019-03-25T17:26:43.591Z,7.70
2019-03-25T17:29:18.204Z,7.30
2019-03-25T17:31:54.902Z,4.17
2019-03-25T17:34:29.930Z,7.83
2019-03-25T17:37:06.486Z,3.63
2019-03-25T17:39:48.394Z,6.57
2019-03-25T17:42:26.315Z,6.40
2019-03-25T17:45:05.464Z,3.83
2019-03-25T17:47:41.391Z,8.53
2019-03-25T17:50:18.908Z,5.70
2019-03-25T17:52:55.365Z,6.90
2019-03-25T17:55:35.574Z,5.97
2019-03-25T17:58:10.247Z,7.95
2019-03-25T18:01:08.864Z,6.13
2019-03-25T18:03:44.474Z,8.83
2019-03-25T18:06:21.034Z,6.63
2019-03-25T18:08:58.946Z,7.63
2019-03-25T18:11:35.222Z,10.83
2019-03-25T18:14:12.655Z,9.87
2019-03-25T18:16:50.763Z,7.57
2019-03-25T18:19:34.735Z,7.87
2019-03-25T18:22:12.619Z,7.00
2019-03-25T18:24:51.479Z,6.40
2019-03-25T18:27:30.111Z,7.87
2019-03-25T18:30:14.265Z,7.83
2019-03-25T18:32:55.264Z,6.80
2019-03-25T18:35:31.460Z,6.47
2019-03-25T18:38:07.809Z,9.80
2019-03-25T18:40:45.834Z,11.03
2019-03-25T18:43:25.100Z,9.83
2019-03-25T18:46:02.005Z,7.27
2019-03-25T18:48:40.036Z,9.80
2019-03-25T18:51:15.598Z,9.90
2019-03-25T18:53:50.811Z,7.40
2019-03-25T18:56:34.476Z,9.67
2019-03-25T18:59:11.807Z,7.40
2019-03-25T19:01:54.529Z,8.60
2019-03-25T19:04:29.831Z,10.43
2019-03-25T19:07:06.970Z,9.83
2019-03-25T19:09:41.845Z,7.70
2019-03-25T19:12:18.247Z,7.93
2019-03-25T19:14:55.315Z,9.83
2019-03-25T19:17:34.589Z,10.50
2019-03-25T19:20:11.572Z,7.13
2019-03-25T19:22:47.549Z,11.90
2019-03-25T19:25:23.028Z,12.37
2019-03-25T19:28:02.107Z,7.53
2019-03-25T19:30:38.582Z,11.17
2019-03-25T19:33:13.245Z,10.57
2019-03-25T19:35:48.842Z,7.93
2019-03-25T19:38:26.885Z,9.03
2019-03-25T19:41:02.217Z,10.93
2019-03-25T19:43:41.925Z,7.03
2019-03-25T19:46:17.076Z,9.13
2019-03-25T19:48:54.520Z,10.00
2019-03-25T19:51:30.147Z,9.17
2019-03-25T19:54:05.352Z,5.17
2019-03-25T19:56:42.472Z,11.70
2019-03-25T19:59:17.314Z,11.30
2019-03-25T20:01:52.133Z,9.67
2019-03-25T20:04:28.651Z,12.30
2019-03-25T20:07:04.675Z,10.67
2019-03-25T20:09:42.611Z,13.33
2019-03-25T20:12:17.667Z,11.10
2019-03-25T20:14:52.880Z,14.23
2019-03-25T20:17:28.047Z,9.97
2019-03-25T20:20:04.222Z,11.20
2019-03-25T20:22:40.543Z,7.33
2019-03-25T20:25:16.050Z,9.53
2019-03-25T20:27:51.009Z,11.40
2019-03-25T20:30:27.527Z,10.53
2019-03-25T20:33:10.574Z,13.77
2019-03-25T20:35:45.639Z,8.77
2019-03-25T20:38:22.738Z,8.93
2019-03-25T20:40:57.782Z,8.83
2019-03-25T20:43:34.963Z,9.57
2019-03-25T20:46:10.856Z,11.90
2019-03-25T20:48:46.566Z,12.80
2019-03-25T20:51:22.073Z,9.63
2019-03-25T20:53:57.609Z,9.23
2019-03-25T20:56:32.749Z,10.47
2019-03-25T20:59:09.160Z,9.87
2019-03-25T21:01:45.235Z,13.10
2019-03-25T21:04:20.817Z,12.87
2019-03-25T21:06:55.963Z,12.33
2019-03-25T21:09:31.853Z,11.20
2019-03-25T21:12:07.284Z,13.20
2019-03-25T21:14:44.704Z,17.13
2019-03-25T21:17:20.970Z,17.03
2019-03-25T21:19:57.156Z,17.80
2019-03-25T21:22:34.310Z,12.50
2019-03-25T21:25:14.937Z,15.07
2019-03-25T21:27:49.676Z,14.33
2019-03-25T21:30:28.195Z,10.00
2019-03-25T21:33:05.556Z,13.10
2019-03-25T21:35:40.220Z,12.23
2019-03-25T21:38:16.688Z,10.17
2019-03-25T21:40:52.270Z,12.97
2019-03-25T21:43:27.443Z,14.23
2019-03-25T21:46:05.197Z,10.90
2019-03-25T21:48:42.438Z,17.90
2019-03-25T21:51:20.824Z,13.70
2019-03-25T21:53:57.431Z,13.03
2019-03-25T21:56:32.207Z,14.63
2019-03-25T21:59:08.851Z,12.17
2019-03-25T22:01:47.430Z,12.77
2019-03-25T22:04:23.843Z,12.50
2019-03-25T22:06:59.438Z,12.47
2019-03-25T22:09:45.507Z,13.60
2019-03-25T22:12:20.131Z,11.77
2019-03-25T22:14:55.226Z,16.17
2019-03-25T22:17:30.846Z,11.07
2019-03-25T22:20:07.143Z,11.00
2019-03-25T22:22:42.164Z,10.23
2019-03-25T22:25:18.105Z,16.63
2019-03-25T22:27:53.715Z,10.23
2019-03-25T22:30:30.757Z,14.13
2019-03-25T22:33:08.160Z,14.20
2019-03-25T22:35:45.279Z,16.47
2019-03-25T22:38:20.499Z,14.80
2019-03-25T22:40:55.399Z,13.60
2019-03-25T22:43:30.717Z,16.37
2019-03-25T22:46:06.282Z,16.67
2019-03-25T22:48:41.450Z,14.87
2019-03-25T22:51:20.847Z,18.30
2019-03-25T22:54:00.050Z,15.20
2019-03-25T22:56:37.568Z,13.17
2019-03-25T22:59:14.514Z,13.03
2019-03-25T23:01:58.499Z,12.43
2019-03-25T23:04:34.848Z,15.35
2019-03-25T23:07:35.210Z,15.43
2019-03-25T23:10:11.097Z,11.53
2019-03-25T23:12:45.905Z,23.60
2019-03-25T23:15:21.058Z,17.53
2019-03-25T23:17:56.201Z,15.20
2019-03-25T23:20:32.154Z,13.47
2019-03-25T23:23:08.638Z,15.50
2019-03-25T23:25:43.874Z,16.30
2019-03-25T23:28:19.197Z,15.98
2019-03-25T23:30:54.356Z,12.60
2019-03-25T23:33:30.326Z,14.87
2019-03-25T23:36:05.700Z,17.30
2019-03-25T23:38:41.730Z,17.57
2019-03-25T23:41:18.523Z,11.20
2019-03-25T23:43:54.687Z,12.97
2019-03-25T23:46:29.852Z,15.70
2019-03-25T23:49:04.519Z,15.93
2019-03-25T23:51:39.018Z,20.80
2019-03-25T23:54:15.511Z,17.53
2019-03-25T23:56:50.324Z,12.73
2019-03-25T23:59:25.450Z,13.10
